首页
METAR-TAF:

METAR-TAF

机场 :

Dubbo, 澳大利亚

纬度: 32-12S, 经度: 148-34E, 海拔: 275米

当前天气观测

该预报发布于15分钟前的11:00 UTC
静风
温度 5°C
湿度 81%
气压 1026 hPa
能见度10公里或以上

METAR: YSDU 231100Z AUTO 00000KT 9999 // NCD 05/02 Q1026 RF00.0/000.0

时间: 21:15 (11:15 UTC)

预报

该预报发布于5小时和51分钟前的05:24 UTC
预报有效从23日的 06点(UTC)到 24日的 00点(UTC)
风速8节,风向西转西北
能见度10公里或以上
1500米以下无云,无积雨云
从 23日的 0900点(UTC)
风速3节,风向多变
能见度10公里或以上
1500米以下无云,无积雨云
从 23日的 2300点(UTC)
风速6节,风向东转东北
能见度10公里或以上
1500米以下无云,无积雨云
几率 30%
从 23日的 14点(UTC)到 23日的 18点(UTC)
能見度: 0300
多云层高于100英尺
几率 30%
从 23日的 18点(UTC)到 23日的 22点(UTC)
能見度: 0300
多云层高于100英尺
冻雾,

TAF: YSDU 230524Z 2306/2400 29008KT CAVOK FM230900 VRB03KT CAVOK FM232300 07006KT CAVOK PROB30 2314/2318 0300 FG BKN001 PROB30 2318/2322 0300 FZFG BKN001

超过4000个机场的气象观测和天气预报(METAR&TAF报告)。

可查询的气象台以黄色和红色小点在地图上表示。

将鼠标移到小点上方,可查看气象台名称。

然后点击查看天气观测和预报。

如需切换地图:点击带黑十字的绿色按钮放大地图;点击带横线的绿色按钮缩小地图;或者点击绿色箭头查看邻近地区的地图。


METAR-TAF: